Adams Run, South Carolina
Current Conditions -  °F | °C
As of 11:55 AM on Tuesday 27 Jan 2015 (Local Time) from KJZI Reporting Station
Overcast Overcast  
Wind Chill: 40°   Ceiling: 8000
Heat Index: 46°   Visibility: 10mi
Dew Point: 27°   Wind: 14mph
Humidity: 46%   Direction: 350°N
Pressure: 29.87"   Gusts: NA
Location:  32.72°N, 80.35°W
Report Text: KJZI 271655Z AUTO 35012KT 10SM OVC080 08/M03 A2987 RMK A02 P000
Loading
Personal Weather Stations






























Interactive Weather Map New forecast layout! Learn more

10-Day Weather Forecast

Advertisements
Track Severe Weather on mobile